Time;durP1;ratioP1;P1;durP2;ratioP2;P2;SDS_P1;SDS_P2;PMS_P1;PMS_P2;Temp;Humidity;BMP_temperature;BMP_pressure;BME280_temperature;BME280_humidity;BME280_pressure;Samples;Min_cycle;Max_cycle;Signal;HPM_P1;HPM_P2
2021/10/15 00:09:36;;;;;;;6.70;4.53;;;7.50;1.00;;;;;;4863731;29;20120;-72
2021/10/15 00:23:49;;;;;;;;;;;;;;;;;;;;;
2021/10/15 00:33:58;;;;;;;;;;;;;;;;;;;;;
2021/10/15 00:37:22;;;;;;;9.30;4.75;;;7.40;1.00;;;;;;4816189;29;20038;-72
2021/10/15 00:55:04;;;;;;;5.07;4.40;;;7.50;1.00;;;;;;4784046;29;20039;-73
2021/10/15 01:18:50;;;;;;;6.13;4.60;;;7.70;1.00;;;;;;4769192;30;19981;-72
2021/10/15 01:21:58;;;;;;;6.03;4.70;;;7.80;1.00;;;;;;4769440;30;20032;-72
2021/10/15 01:24:53;;;;;;;6.47;4.85;;;7.90;1.00;;;;;;4792785;29;20133;-72
2021/10/15 01:38:15;;;;;;;6.07;4.80;;;7.70;1.00;;;;;;4841342;29;20041;-72
2021/10/15 01:48:25;;;;;;;6.95;4.38;;;7.70;1.00;;;;;;4841402;29;20154;-72
2021/10/15 02:02:15;;;;;;;;;;;;;;;;;;;;;
2021/10/15 02:22:06;;;;;;;5.37;4.47;;;8.20;1.00;;;;;;4711256;30;20037;-72
2021/10/15 02:43:34;;;;;;;4.80;4.15;;;8.40;1.00;;;;;;4822738;29;20175;-72
2021/10/15 02:54:20;;;;;;;5.55;4.40;;;8.60;1.00;;;;;;4778663;30;20060;-72
2021/10/15 03:01:04;;;;;;;;;;;;;;;;;;;;;
2021/10/15 03:27:45;;;;;;;6.75;4.82;;;9.10;1.00;;;;;;4790736;29;20568;-72
2021/10/15 03:31:04;;;;;;;7.55;4.97;;;9.00;1.00;;;;;;4769919;30;20035;-72
2021/10/15 03:42:01;;;;;;;;;;;;;;;;;;;;;
2021/10/15 04:24:40;;;;;;;6.00;4.73;;;9.30;1.00;;;;;;4858624;29;20073;-73
2021/10/15 04:27:12;;;;;;;5.95;4.45;;;9.40;1.00;;;;;;4879524;29;20584;-73
2021/10/15 04:30:03;;;;;;;6.78;5.15;;;9.40;1.00;;;;;;4881162;29;20045;-73
2021/10/15 04:32:35;;;;;;;;;;;9.40;1.00;;;;;;4895471;29;20045;-73
2021/10/15 04:35:02;;;;;;;6.57;4.95;;;9.40;1.00;;;;;;4875249;29;19912;-74
2021/10/15 04:37:27;;;;;;;5.15;4.65;;;9.50;1.00;;;;;;4880554;29;20059;-74
2021/10/15 04:39:53;;;;;;;8.05;5.07;;;9.50;1.00;;;;;;4880422;29;20509;-74
2021/10/15 04:42:19;;;;;;;5.28;4.63;;;9.50;1.00;;;;;;4882279;29;20049;-74
2021/10/15 04:44:45;;;;;;;7.43;5.20;;;9.60;1.00;;;;;;4881761;29;20068;-74
2021/10/15 04:47:11;;;;;;;7.93;4.60;;;9.60;1.00;;;;;;4882265;29;20419;-73
2021/10/15 04:49:37;;;;;;;6.68;5.13;;;9.60;1.00;;;;;;4871990;29;20049;-74
2021/10/15 04:52:03;;;;;;;5.15;4.65;;;9.60;1.00;;;;;;4861774;29;20498;-74
2021/10/15 04:54:29;;;;;;;6.78;4.85;;;9.60;1.00;;;;;;4862507;29;20501;-74
2021/10/15 04:56:55;;;;;;;7.32;4.95;;;9.60;1.00;;;;;;4863072;29;20053;-74
2021/10/15 04:59:21;;;;;;;7.80;5.10;;;9.60;1.00;;;;;;4863099;29;20116;-74
2021/10/15 05:01:47;;;;;;;5.20;4.13;;;9.70;1.00;;;;;;4863180;29;20108;-74
2021/10/15 05:04:13;;;;;;;9.65;4.78;;;9.70;1.00;;;;;;4863488;29;20045;-74
2021/10/15 05:06:39;;;;;;;8.63;4.43;;;9.70;1.00;;;;;;4863585;29;20166;-74
2021/10/15 05:11:34;;;;;;;8.80;4.38;;;9.60;1.00;;;;;;4863730;29;20069;-74
2021/10/15 05:14:00;;;;;;;7.90;4.50;;;9.60;1.00;;;;;;4863598;29;20086;-74
2021/10/15 05:16:27;;;;;;;8.40;5.03;;;9.60;1.00;;;;;;4876760;29;20050;-74
2021/10/15 05:18:52;;;;;;;8.70;5.20;;;9.60;1.00;;;;;;4863129;29;20053;-74
2021/10/15 05:21:18;;;;;;;6.38;4.55;;;9.60;1.00;;;;;;4863318;29;20106;-74
2021/10/15 05:23:44;;;;;;;10.35;5.40;;;9.60;1.00;;;;;;4863432;29;20105;-74
2021/10/15 05:26:10;;;;;;;6.65;4.63;;;9.60;1.00;;;;;;4863507;29;20045;-74
2021/10/15 05:28:36;;;;;;;6.68;5.53;;;9.60;1.00;;;;;;4863539;29;20124;-74
2021/10/15 05:31:02;;;;;;;7.07;5.45;;;9.50;1.00;;;;;;4863502;29;20049;-74
2021/10/15 05:33:28;;;;;;;6.97;4.90;;;9.50;1.00;;;;;;4862172;29;20041;-74
2021/10/15 05:35:55;;;;;;;7.30;5.20;;;9.60;1.00;;;;;;4863340;29;20051;-74
2021/10/15 05:38:21;;;;;;;9.48;5.28;;;9.50;1.00;;;;;;4863004;29;20037;-74
2021/10/15 05:40:47;;;;;;;5.57;5.00;;;9.50;1.00;;;;;;4863181;29;20100;-74
2021/10/15 05:43:12;;;;;;;8.50;5.00;;;9.50;1.00;;;;;;4863245;29;20050;-74
2021/10/15 05:45:38;;;;;;;9.75;5.40;;;9.50;1.00;;;;;;4862666;29;20454;-74
2021/10/15 05:48:04;;;;;;;5.28;4.45;;;9.50;1.00;;;;;;4863637;29;20041;-72
2021/10/15 05:50:31;;;;;;;6.30;4.60;;;9.40;1.00;;;;;;4861920;29;20041;-74
2021/10/15 05:53:06;;;;;;;8.25;5.60;;;9.30;1.00;;;;;;4877509;29;20197;-71
2021/10/15 05:55:41;;;;;;;8.68;5.18;;;9.30;1.00;;;;;;4862807;29;20121;-72
2021/10/15 06:00:51;;;;;;;7.13;5.35;;;9.30;1.00;;;;;;4862250;29;20052;-71
2021/10/15 06:03:21;;;;;;;5.70;5.10;;;9.30;1.00;;;;;;4862556;29;20045;-71
2021/10/15 06:06:44;;;;;;;7.47;5.50;;;9.30;1.00;;;;;;4862528;29;20076;-71
2021/10/15 06:16:29;;;;;;;8.65;6.00;;;9.70;1.00;;;;;;4860890;29;20409;-71
2021/10/15 06:19:05;;;;;;;8.75;5.72;;;9.80;1.00;;;;;;4860888;29;20037;-71
2021/10/15 06:21:31;;;;;;;13.70;5.63;;;9.80;1.00;;;;;;4862118;29;20065;-71
2021/10/15 06:23:57;;;;;;;6.60;5.68;;;9.90;1.00;;;;;;4861813;29;20045;-71
2021/10/15 06:26:23;;;;;;;5.68;4.65;;;9.90;1.00;;;;;;4861857;29;20060;-71
2021/10/15 06:28:48;;;;;;;9.40;5.30;;;10.00;1.00;;;;;;4862590;29;20046;-71
2021/10/15 06:31:14;;;;;;;12.38;4.65;;;10.00;1.00;;;;;;4862068;29;20038;-71
2021/10/15 06:33:40;;;;;;;6.65;5.07;;;10.00;1.00;;;;;;4862786;29;20512;-71
2021/10/15 06:36:06;;;;;;;7.72;5.35;;;10.10;1.00;;;;;;4876379;29;20045;-71
2021/10/15 06:38:32;;;;;;;7.38;6.00;;;10.20;1.00;;;;;;4862170;29;20042;-71
2021/10/15 06:40:58;;;;;;;11.10;6.18;;;10.20;1.00;;;;;;4861841;29;20070;-71
2021/10/15 06:43:24;;;;;;;9.00;6.00;;;10.30;1.00;;;;;;4861774;29;20041;-71
2021/10/15 06:45:51;;;;;;;6.95;5.47;;;10.40;1.00;;;;;;4861980;29;20051;-71
2021/10/15 06:48:17;;;;;;;10.95;5.00;;;10.40;1.00;;;;;;4862096;29;20124;-71
2021/10/15 06:50:43;;;;;;;6.20;4.60;;;10.40;1.00;;;;;;4862301;29;20566;-71
2021/10/15 06:53:09;;;;;;;7.07;5.35;;;10.40;1.00;;;;;;4876145;29;20049;-71
2021/10/15 06:55:36;;;;;;;6.93;5.20;;;10.40;1.00;;;;;;4861941;29;20045;-71
2021/10/15 06:58:04;;;;;;;9.13;5.68;;;10.40;1.00;;;;;;4860461;29;20033;-71
2021/10/15 07:00:30;;;;;;;10.48;6.60;;;10.40;1.00;;;;;;4862491;29;20561;-71
2021/10/15 07:02:58;;;;;;;10.38;6.63;;;10.50;1.00;;;;;;4861970;29;20067;-71
2021/10/15 07:05:24;;;;;;;6.15;5.10;;;10.60;1.00;;;;;;4861719;29;20486;-71
2021/10/15 07:07:51;;;;;;;10.88;5.22;;;10.70;1.00;;;;;;4861706;29;20089;-71
2021/10/15 07:10:17;;;;;;;9.50;5.35;;;10.80;1.00;;;;;;4861605;29;20461;-71
2021/10/15 07:12:47;;;;;;;9.63;5.68;;;10.80;1.00;;;;;;4876065;29;20037;-71
2021/10/15 07:15:15;;;;;;;10.55;6.10;;;10.90;1.00;;;;;;4876019;29;20125;-71
2021/10/15 07:17:42;;;;;;;9.20;5.97;;;10.90;1.00;;;;;;4861396;29;20041;-71
2021/10/15 07:20:09;;;;;;;6.78;5.32;;;10.90;1.00;;;;;;4861540;29;20128;-71
2021/10/15 07:22:38;;;;;;;9.70;5.88;;;10.90;1.00;;;;;;4875897;29;20053;-71
2021/10/15 07:25:05;;;;;;;8.23;5.70;;;10.90;1.00;;;;;;4861701;29;20512;-71
2021/10/15 07:27:31;;;;;;;9.23;7.20;;;10.90;1.00;;;;;;4861865;29;20090;-71
2021/10/15 07:29:57;;;;;;;8.07;5.50;;;11.00;1.00;;;;;;4875703;29;20041;-71
2021/10/15 07:32:23;;;;;;;10.52;6.60;;;11.20;1.00;;;;;;4861533;29;20033;-71
2021/10/15 07:34:49;;;;;;;9.13;6.80;;;11.40;1.00;;;;;;4862211;29;20037;-71
2021/10/15 07:37:15;;;;;;;10.68;7.22;;;11.70;1.00;;;;;;4861788;29;20140;-72
2021/10/15 07:39:41;;;;;;;10.48;6.47;;;12.00;1.00;;;;;;4863937;29;20101;-72
2021/10/15 07:42:07;;;;;;;11.60;7.63;;;12.20;1.00;;;;;;4879170;29;20043;-71
2021/10/15 07:44:33;;;;;;;10.27;6.95;;;12.30;1.00;;;;;;4864952;29;20056;-71
2021/10/15 07:46:59;;;;;;;11.70;7.53;;;12.50;1.00;;;;;;4864558;29;20128;-72
2021/10/15 07:49:24;;;;;;;12.48;8.70;;;12.70;1.00;;;;;;4865273;29;20041;-72
2021/10/15 07:51:52;;;;;;;11.38;7.88;;;12.80;1.00;;;;;;4877738;29;20174;-72
2021/10/15 07:54:17;;;;;;;15.45;7.65;;;12.80;1.00;;;;;;4877787;29;20075;-72
2021/10/15 07:56:43;;;;;;;14.27;7.63;;;12.80;1.00;;;;;;4863622;29;20057;-72
2021/10/15 07:59:09;;;;;;;9.90;7.10;;;12.60;1.00;;;;;;4864786;29;20046;-71
2021/10/15 08:05:20;;;;;;;10.85;6.93;;;12.70;1.00;;;;;;4860566;29;20063;-73
2021/10/15 08:07:45;;;;;;;8.10;6.07;;;12.80;1.00;;;;;;4861816;29;20132;-73
2021/10/15 08:10:43;;;;;;;10.65;7.03;;;13.00;1.00;;;;;;4862501;29;20472;-72
2021/10/15 08:13:26;;;;;;;12.15;6.75;;;13.10;1.00;;;;;;4856464;29;20072;-73
2021/10/15 08:16:43;;;;;;;7.15;6.00;;;13.20;1.00;;;;;;4863149;29;20073;-72
2021/10/15 08:19:18;;;;;;;7.60;5.47;;;13.40;1.00;;;;;;4853112;29;20049;-73
2021/10/15 08:21:49;;;;;;;8.35;5.47;;;13.60;1.00;;;;;;4862172;29;20552;-73
2021/10/15 08:24:15;;;;;;;9.10;5.38;;;13.90;1.00;;;;;;4864298;29;20048;-73
2021/10/15 08:26:41;;;;;;;8.23;6.15;;;14.20;1.00;;;;;;4863935;29;20053;-73
2021/10/15 08:29:08;;;;;;;8.82;6.18;;;14.30;1.00;;;;;;4864247;29;20597;-73
2021/10/15 08:31:33;;;;;;;10.15;6.38;;;14.40;1.00;;;;;;4863828;29;20034;-73
2021/10/15 08:34:02;;;;;;;10.68;6.13;;;14.50;1.00;;;;;;4863694;29;20409;-73
2021/10/15 08:36:28;;;;;;;11.32;6.00;;;14.70;1.00;;;;;;4877778;29;20044;-73
2021/10/15 08:38:54;;;;;;;7.50;5.25;;;14.90;1.00;;;;;;4863776;29;20124;-73
2021/10/15 08:41:51;;;;;;;7.82;5.18;;;14.90;1.00;;;;;;4862900;29;20037;-73
2021/10/15 08:45:15;;;;;;;6.65;4.25;;;15.00;1.00;;;;;;4863536;29;20045;-73
2021/10/15 08:48:45;;;;;;;8.85;5.13;;;14.90;1.00;;;;;;4877004;29;20041;-73
2021/10/15 08:57:48;;;;;;;9.95;4.95;;;14.40;1.00;;;;;;4852752;29;20180;-72
2021/10/15 09:00:56;;;;;;;9.27;5.95;;;14.40;1.00;;;;;;4861199;29;20033;-73
2021/10/15 09:04:18;;;;;;;;;;;;;;;;;;;;;
2021/10/15 09:10:19;;;;;;;7.15;5.10;;;13.90;1.00;;;;;;4841506;29;20422;-73
2021/10/15 09:12:56;;;;;;;7.72;5.45;;;13.90;1.00;;;;;;4877171;29;20498;-74
2021/10/15 09:15:32;;;;;;;12.25;5.05;;;13.90;1.00;;;;;;4877468;29;20049;-78
2021/10/15 09:18:08;;;;;;;7.95;5.25;;;13.80;1.00;;;;;;4863403;29;20071;-74
2021/10/15 09:20:35;;;;;;;13.48;5.75;;;13.70;1.00;;;;;;4876789;29;20421;-74
2021/10/15 09:23:01;;;;;;;13.85;5.60;;;13.80;1.00;;;;;;4862888;29;20041;-74
2021/10/15 09:25:32;;;;;;;10.00;6.45;;;13.90;1.00;;;;;;4861657;29;20049;-74
2021/10/15 09:27:58;;;;;;;8.98;5.22;;;13.80;1.00;;;;;;4862248;29;20037;-74
2021/10/15 09:30:28;;;;;;;7.80;5.13;;;13.70;1.00;;;;;;4863099;29;20504;-74
2021/10/15 09:32:57;;;;;;;5.43;4.93;;;13.80;1.00;;;;;;4862931;29;20037;-74
2021/10/15 09:35:28;;;;;;;10.50;5.63;;;13.90;1.00;;;;;;4877377;29;20068;-74
2021/10/15 09:38:06;;;;;;;7.57;5.57;;;14.10;1.00;;;;;;4861541;29;20497;-74
2021/10/15 09:40:35;;;;;;;10.27;5.75;;;14.30;1.00;;;;;;4861891;29;20079;-74
2021/10/15 09:43:05;;;;;;;6.55;5.22;;;14.50;1.00;;;;;;4862573;29;20041;-74
2021/10/15 09:45:46;;;;;;;8.60;6.27;;;14.60;1.00;;;;;;4862568;29;20129;-74
2021/10/15 09:48:39;;;;;;;10.35;5.85;;;14.70;1.00;;;;;;4862809;29;20048;-74
2021/10/15 09:51:15;;;;;;;8.43;5.90;;;14.90;1.00;;;;;;4845115;29;20120;-74
2021/10/15 09:54:02;;;;;;;9.85;5.30;;;15.00;1.00;;;;;;4862730;29;20045;-74
2021/10/15 09:56:54;;;;;;;7.28;5.45;;;15.00;1.00;;;;;;4862570;29;20045;-74
2021/10/15 09:59:20;;;;;;;11.57;5.47;;;15.10;1.00;;;;;;4862125;29;20073;-74
2021/10/15 10:01:46;;;;;;;8.63;5.00;;;15.10;1.00;;;;;;4861936;29;20041;-74
2021/10/15 10:04:12;;;;;;;9.60;5.38;;;15.10;1.00;;;;;;4862261;29;20490;-74
2021/10/15 10:06:39;;;;;;;11.77;4.90;;;15.20;1.00;;;;;;4862253;29;20431;-74
2021/10/15 10:09:06;;;;;;;9.27;4.25;;;15.10;1.00;;;;;;4862787;29;20048;-74
2021/10/15 10:11:32;;;;;;;8.88;4.63;;;15.30;1.00;;;;;;4862405;29;20045;-74
2021/10/15 10:13:58;;;;;;;7.78;4.68;;;15.10;1.00;;;;;;4876578;29;20053;-74
2021/10/15 10:23:29;;;;;;;12.77;5.60;;;15.70;1.00;;;;;;4859548;29;20052;-74
2021/10/15 10:26:00;;;;;;;8.73;5.03;;;15.90;1.00;;;;;;4861521;29;20045;-73
2021/10/15 10:28:27;;;;;;;8.98;4.35;;;16.00;1.00;;;;;;4862100;29;20052;-73
2021/10/15 10:31:03;;;;;;;5.85;4.15;;;16.00;1.00;;;;;;4861640;29;20044;-74
2021/10/15 10:33:30;;;;;;;6.60;4.55;;;16.00;1.00;;;;;;4861855;29;20136;-73
2021/10/15 10:36:10;;;;;;;6.10;3.90;;;15.90;1.00;;;;;;4861985;29;20038;-73
2021/10/15 10:38:37;;;;;;;10.43;4.05;;;15.90;1.00;;;;;;4860971;29;20124;-73
2021/10/15 10:41:06;;;;;;;5.10;3.70;;;15.90;1.00;;;;;;4860494;29;20092;-73
2021/10/15 10:43:35;;;;;;;6.15;4.22;;;15.80;1.00;;;;;;4862059;29;20045;-73
2021/10/15 10:46:22;;;;;;;7.25;4.00;;;15.70;1.00;;;;;;4861733;29;20041;-73
2021/10/15 10:48:51;;;;;;;5.43;3.78;;;15.60;1.00;;;;;;4875698;29;20154;-73
2021/10/15 10:51:25;;;;;;;8.52;4.03;;;15.70;1.00;;;;;;4861764;29;20041;-73
2021/10/15 10:54:04;;;;;;;7.10;4.18;;;15.70;1.00;;;;;;4860555;29;20037;-73
2021/10/15 10:56:39;;;;;;;6.38;3.95;;;15.70;1.00;;;;;;4876103;29;20045;-74
2021/10/15 10:59:20;;;;;;;6.50;3.20;;;15.90;1.00;;;;;;4860870;29;20124;-74
2021/10/15 11:01:51;;;;;;;5.85;3.58;;;15.90;1.00;;;;;;4860284;29;20549;-75
2021/10/15 11:07:54;;;;;;;5.07;3.45;;;16.20;1.00;;;;;;4861220;29;20089;-73
2021/10/15 11:10:27;;;;;;;7.68;3.78;;;16.30;1.00;;;;;;4873193;29;20065;-74
2021/10/15 11:12:53;;;;;;;5.47;3.50;;;16.50;1.00;;;;;;4862651;29;20041;-75
2021/10/15 11:15:19;;;;;;;8.85;5.78;;;16.60;1.00;;;;;;4865274;29;20096;-74
2021/10/15 11:17:48;;;;;;;5.20;4.15;;;16.60;1.00;;;;;;4865635;29;20053;-73
2021/10/15 11:20:35;;;;;;;8.23;3.63;;;16.50;1.00;;;;;;4865934;29;20042;-74
2021/10/15 11:23:06;;;;;;;6.90;3.80;;;16.40;1.00;;;;;;4879481;29;20462;-74
2021/10/15 11:25:40;;;;;;;6.28;3.50;;;16.30;1.00;;;;;;4865637;29;20381;-74
2021/10/15 11:28:15;;;;;;;5.07;3.90;;;16.20;1.00;;;;;;4865878;29;20061;-74
2021/10/15 11:30:44;;;;;;;6.85;4.05;;;16.00;1.00;;;;;;4865675;29;20041;-74
2021/10/15 11:33:13;;;;;;;9.75;4.38;;;16.20;1.00;;;;;;4865482;29;20045;-74
2021/10/15 11:35:42;;;;;;;12.73;5.60;;;16.40;1.00;;;;;;4864998;29;20042;-73
2021/10/15 11:38:20;;;;;;;12.70;6.50;;;16.10;1.00;;;;;;4865290;29;20140;-74
2021/10/15 11:40:46;;;;;;;8.45;5.15;;;16.00;1.00;;;;;;4865480;29;20050;-73
2021/10/15 11:43:24;;;;;;;9.05;4.72;;;16.10;1.00;;;;;;4861969;29;20037;-74
2021/10/15 11:46:20;;;;;;;6.25;3.63;;;16.50;1.00;;;;;;4892747;29;20053;-74
2021/10/15 11:49:19;;;;;;;;;;;;;;;;;;;;;
2021/10/15 11:52:07;;;;;;;4.40;2.85;;;16.60;1.00;;;;;;4883115;29;20037;-74
2021/10/15 11:54:45;;;;;;;7.47;4.40;;;16.80;1.00;;;;;;4862361;29;20056;-74
2021/10/15 11:57:50;;;;;;;5.53;3.83;;;17.00;1.00;;;;;;4860184;29;20098;-74
2021/10/15 12:00:17;;;;;;;6.78;3.58;;;16.80;1.00;;;;;;4845951;29;20094;-69
2021/10/15 12:02:46;;;;;;;11.23;5.50;;;17.00;1.00;;;;;;4845828;29;20049;-69
2021/10/15 12:05:25;;;;;;;7.80;4.45;;;17.00;1.00;;;;;;4844921;29;20171;-69
2021/10/15 12:07:51;;;;;;;8.25;3.25;;;17.00;1.00;;;;;;4844535;29;20061;-70
2021/10/15 12:10:16;;;;;;;5.15;2.88;;;16.80;1.00;;;;;;4844083;29;20394;-70
2021/10/15 12:12:42;;;;;;;4.57;2.95;;;16.60;1.00;;;;;;4844406;29;20054;-70
2021/10/15 12:15:08;;;;;;;6.50;3.42;;;16.50;1.00;;;;;;4846098;29;20045;-70
2021/10/15 12:17:34;;;;;;;5.07;3.60;;;16.50;1.00;;;;;;4845323;29;20042;-70
2021/10/15 12:20:00;;;;;;;6.05;2.88;;;16.40;1.00;;;;;;4845820;29;20389;-70
2021/10/15 12:22:27;;;;;;;3.35;2.35;;;16.30;1.00;;;;;;4844569;29;20057;-70
2021/10/15 12:24:57;;;;;;;4.90;2.63;;;16.40;1.00;;;;;;4845064;29;20042;-70
2021/10/15 12:27:26;;;;;;;5.90;2.80;;;16.30;1.00;;;;;;4845564;29;20042;-70
2021/10/15 12:29:58;;;;;;;3.15;2.65;;;16.40;1.00;;;;;;4845887;29;20072;-70
2021/10/15 12:32:34;;;;;;;4.75;2.85;;;16.30;1.00;;;;;;4845422;29;20046;-70
2021/10/15 12:35:08;;;;;;;3.95;2.53;;;16.40;1.00;;;;;;4845927;29;20106;-70
2021/10/15 12:37:45;;;;;;;5.10;3.22;;;16.50;1.00;;;;;;4845139;29;20569;-69
2021/10/15 12:40:21;;;;;;;5.20;2.95;;;16.40;1.00;;;;;;4845725;29;20053;-70
2021/10/15 12:43:06;;;;;;;4.00;2.90;;;16.50;1.00;;;;;;4845022;29;20049;-70
2021/10/15 12:45:32;;;;;;;4.32;2.63;;;16.50;1.00;;;;;;4845456;29;20124;-70
2021/10/15 12:48:10;;;;;;;4.18;2.88;;;16.60;1.00;;;;;;4843455;29;20137;-70
2021/10/15 12:50:38;;;;;;;5.28;2.95;;;16.50;1.00;;;;;;4845105;29;20045;-69
2021/10/15 12:53:11;;;;;;;5.80;2.53;;;16.60;1.00;;;;;;4844491;29;20069;-70
2021/10/15 12:55:58;;;;;;;4.10;2.45;;;16.40;1.00;;;;;;4845091;29;20125;-69
2021/10/15 12:58:29;;;;;;;4.72;2.83;;;16.60;1.00;;;;;;4845431;29;20136;-70
2021/10/15 13:00:57;;;;;;;4.13;2.10;;;16.90;1.00;;;;;;4845382;29;20038;-70
2021/10/15 13:03:23;;;;;;;5.43;2.40;;;17.00;1.00;;;;;;4845217;29;20050;-70
2021/10/15 13:05:51;;;;;;;7.22;4.03;;;16.80;1.00;;;;;;4845680;29;20113;-70
2021/10/15 13:08:18;;;;;;;2.63;2.00;;;16.80;1.00;;;;;;4845060;29;20049;-70
2021/10/15 13:10:45;;;;;;;2.38;2.15;;;16.80;1.00;;;;;;4845037;29;20037;-70
2021/10/15 13:13:13;;;;;;;3.65;2.38;;;16.70;1.00;;;;;;4845017;29;20110;-70
2021/10/15 13:15:39;;;;;;;2.13;1.92;;;16.70;1.00;;;;;;4874208;29;20164;-70
2021/10/15 13:18:06;;;;;;;4.60;2.60;;;16.50;1.00;;;;;;4847520;29;20097;-70
2021/10/15 13:20:32;;;;;;;3.97;2.30;;;16.60;1.00;;;;;;4864615;29;20533;-71
2021/10/15 13:22:58;;;;;;;3.25;2.30;;;16.50;1.00;;;;;;4879101;29;20068;-70
2021/10/15 13:25:25;;;;;;;2.17;1.80;;;16.80;1.00;;;;;;4881137;29;20041;-71
2021/10/15 13:27:51;;;;;;;4.53;3.05;;;16.80;1.00;;;;;;4877284;29;20072;-70
2021/10/15 13:30:17;;;;;;;7.15;4.57;;;17.00;1.00;;;;;;4863236;29;20106;-70
2021/10/15 13:32:44;;;;;;;3.88;2.70;;;17.20;1.00;;;;;;4863032;29;20520;-70
2021/10/15 13:35:10;;;;;;;3.75;2.50;;;17.20;1.00;;;;;;4862736;29;20045;-71
2021/10/15 13:37:51;;;;;;;5.60;3.50;;;17.40;1.00;;;;;;4860254;29;20046;-71
2021/10/15 13:40:19;;;;;;;4.43;2.20;;;17.30;1.00;;;;;;4861617;29;20139;-71
2021/10/15 13:50:46;;;;;;;4.78;2.58;;;17.50;1.00;;;;;;4851345;29;20073;-71
2021/10/15 13:53:12;;;;;;;4.03;2.33;;;17.40;1.00;;;;;;4862471;29;20453;-71
2021/10/15 13:55:47;;;;;;;5.68;2.90;;;17.40;1.00;;;;;;4862503;29;20080;-71
2021/10/15 13:58:34;;;;;;;3.08;1.92;;;17.50;1.00;;;;;;4862961;29;20049;-71
2021/10/15 14:01:08;;;;;;;5.18;2.13;;;17.40;1.00;;;;;;4862195;29;20049;-71
2021/10/15 14:06:02;;;;;;;2.85;2.50;;;17.30;1.00;;;;;;4862195;29;20038;-71
2021/10/15 14:08:29;;;;;;;3.60;2.55;;;17.40;1.00;;;;;;4862281;29;20568;-72
2021/10/15 14:10:55;;;;;;;2.38;2.17;;;17.50;1.00;;;;;;4861016;29;20517;-75
2021/10/15 14:13:22;;;;;;;2.50;2.13;;;17.60;1.00;;;;;;4859436;29;20073;-72
2021/10/15 14:15:48;;;;;;;3.95;2.80;;;17.60;1.00;;;;;;4859775;29;20513;-70
2021/10/15 14:18:14;;;;;;;6.13;2.42;;;17.80;1.00;;;;;;4860157;29;20050;-73
2021/10/15 14:20:41;;;;;;;3.40;2.38;;;17.80;1.00;;;;;;4859691;29;20556;-73
2021/10/15 14:23:08;;;;;;;4.57;2.47;;;17.70;1.00;;;;;;4861450;29;20522;-73
2021/10/15 14:25:34;;;;;;;3.38;2.55;;;17.80;1.00;;;;;;4862413;29;20041;-73
2021/10/15 14:28:00;;;;;;;4.30;2.38;;;17.70;1.00;;;;;;4862511;29;20125;-73
2021/10/15 14:30:26;;;;;;;3.35;2.10;;;17.80;1.00;;;;;;4862583;29;20554;-73
2021/10/15 14:32:53;;;;;;;6.03;2.22;;;17.70;1.00;;;;;;4862103;29;20037;-72
2021/10/15 14:35:19;;;;;;;6.00;2.42;;;17.80;1.00;;;;;;4862298;29;20209;-73
2021/10/15 14:37:45;;;;;;;3.00;2.20;;;17.80;1.00;;;;;;4862340;29;20093;-73
2021/10/15 14:40:13;;;;;;;5.00;2.78;;;17.80;1.00;;;;;;4862799;29;20048;-73
2021/10/15 14:42:39;;;;;;;6.30;2.60;;;17.90;1.00;;;;;;4862373;29;20505;-73
2021/10/15 14:45:06;;;;;;;4.30;2.00;;;17.90;1.00;;;;;;4862052;29;20489;-72
2021/10/15 14:47:32;;;;;;;3.33;2.22;;;17.90;1.00;;;;;;4863503;29;20045;-72
2021/10/15 14:49:58;;;;;;;3.65;2.40;;;17.50;1.00;;;;;;4868758;29;20055;-73
2021/10/15 14:52:24;;;;;;;5.43;3.40;;;17.60;1.00;;;;;;4868306;29;20059;-73
2021/10/15 14:54:50;;;;;;;5.82;2.28;;;17.60;1.00;;;;;;4868166;29;20148;-73
2021/10/15 14:57:16;;;;;;;4.72;2.60;;;17.50;1.00;;;;;;4868402;29;20512;-73
2021/10/15 14:59:43;;;;;;;4.30;2.55;;;17.40;1.00;;;;;;4868771;29;20052;-73
2021/10/15 15:02:13;;;;;;;3.65;2.63;;;17.50;1.00;;;;;;4868029;29;20045;-73
2021/10/15 15:04:39;;;;;;;5.20;2.78;;;17.50;1.00;;;;;;4868059;29;20049;-73
2021/10/15 15:07:05;;;;;;;4.18;2.75;;;17.40;1.00;;;;;;4868104;29;20052;-73
2021/10/15 15:09:31;;;;;;;4.65;3.00;;;17.30;1.00;;;;;;4868371;29;20052;-73
2021/10/15 15:11:57;;;;;;;3.30;2.50;;;17.30;1.00;;;;;;4868208;29;20402;-73
2021/10/15 15:14:23;;;;;;;4.85;3.05;;;17.20;1.00;;;;;;4868364;29;20109;-73
2021/10/15 15:16:50;;;;;;;4.30;2.20;;;17.20;1.00;;;;;;4868171;29;20037;-73
2021/10/15 15:19:16;;;;;;;3.47;2.80;;;17.10;1.00;;;;;;4868483;29;20486;-73
2021/10/15 15:21:46;;;;;;;5.05;4.05;;;17.00;1.00;;;;;;4867645;29;20053;-72
2021/10/15 15:24:14;;;;;;;3.70;2.65;;;16.90;1.00;;;;;;4868532;29;20131;-72
2021/10/15 15:26:40;;;;;;;6.20;2.90;;;16.80;1.00;;;;;;4867961;29;20041;-72
2021/10/15 15:29:06;;;;;;;7.30;3.85;;;16.60;1.00;;;;;;4868019;29;20081;-72
2021/10/15 15:31:32;;;;;;;4.07;2.90;;;16.50;1.00;;;;;;4868029;29;20397;-72
2021/10/15 15:33:57;;;;;;;4.65;3.15;;;16.40;1.00;;;;;;4868391;29;20096;-72
2021/10/15 15:36:23;;;;;;;5.22;3.92;;;16.40;1.00;;;;;;4868156;29;20494;-72
2021/10/15 15:38:50;;;;;;;5.90;3.17;;;16.40;1.00;;;;;;4868457;29;20565;-72
2021/10/15 15:41:16;;;;;;;8.98;3.70;;;16.40;1.00;;;;;;4867820;29;20080;-72
2021/10/15 15:43:45;;;;;;;5.13;3.80;;;16.20;1.00;;;;;;4867006;29;20073;-76
2021/10/15 15:46:12;;;;;;;5.60;2.85;;;16.30;1.00;;;;;;4866432;29;20053;-77
2021/10/15 15:48:39;;;;;;;5.60;3.13;;;16.20;1.00;;;;;;4867308;29;20057;-77
2021/10/15 15:51:07;;;;;;;8.93;3.50;;;16.20;1.00;;;;;;4866634;29;20045;-77
2021/10/15 15:53:43;;;;;;;4.03;3.15;;;16.00;1.00;;;;;;4866898;29;20048;-76
2021/10/15 15:56:10;;;;;;;3.13;2.70;;;16.00;1.00;;;;;;4866791;29;20152;-77
2021/10/15 15:58:37;;;;;;;5.90;3.20;;;15.80;1.00;;;;;;4866048;29;20132;-77
2021/10/15 16:01:03;;;;;;;4.93;3.25;;;15.70;1.00;;;;;;4862815;29;20121;-77
2021/10/15 16:03:29;;;;;;;4.10;2.88;;;15.80;1.00;;;;;;4847325;29;20037;-77
2021/10/15 16:05:56;;;;;;;7.45;3.33;;;15.90;1.00;;;;;;4863441;29;20061;-77
2021/10/15 16:08:22;;;;;;;4.65;3.50;;;15.90;1.00;;;;;;4863567;29;20045;-77
2021/10/15 16:10:48;;;;;;;8.07;3.60;;;15.80;1.00;;;;;;4864003;29;20561;-73
2021/10/15 16:13:14;;;;;;;3.55;3.00;;;15.70;1.00;;;;;;4863809;29;20414;-72
2021/10/15 16:15:44;;;;;;;7.10;3.25;;;15.70;1.00;;;;;;4863314;29;20452;-72
2021/10/15 16:18:09;;;;;;;5.40;3.65;;;15.60;1.00;;;;;;4863872;29;20496;-72
2021/10/15 16:20:35;;;;;;;5.13;3.20;;;15.50;1.00;;;;;;4878609;29;20089;-72
2021/10/15 16:23:02;;;;;;;5.10;3.58;;;15.50;1.00;;;;;;4864783;29;20065;-72
2021/10/15 16:25:28;;;;;;;5.68;3.67;;;15.30;1.00;;;;;;4864187;29;20574;-72
2021/10/15 16:27:55;;;;;;;5.35;3.63;;;15.30;1.00;;;;;;4864140;29;20041;-72
2021/10/15 16:30:21;;;;;;;6.18;4.00;;;15.10;1.00;;;;;;4864260;29;20081;-72
2021/10/15 16:32:47;;;;;;;5.43;3.97;;;15.20;1.00;;;;;;4863666;29;20037;-72
2021/10/15 16:35:14;;;;;;;6.00;3.63;;;15.10;1.00;;;;;;4864144;29;20053;-72
2021/10/15 16:37:43;;;;;;;4.68;3.45;;;14.90;1.00;;;;;;4863988;29;20129;-72
2021/10/15 16:40:11;;;;;;;6.75;4.25;;;15.00;1.00;;;;;;4864123;29;20052;-72
2021/10/15 16:42:38;;;;;;;6.68;3.75;;;14.90;1.00;;;;;;4863836;29;20540;-72
2021/10/15 16:45:05;;;;;;;8.35;3.25;;;14.70;1.00;;;;;;4863788;29;20124;-72
2021/10/15 16:47:30;;;;;;;5.15;3.00;;;14.70;1.00;;;;;;4863854;29;20641;-72
2021/10/15 16:49:57;;;;;;;5.13;3.58;;;14.60;1.00;;;;;;4878079;29;20120;-72
2021/10/15 16:52:23;;;;;;;7.28;3.78;;;14.60;1.00;;;;;;4863829;29;20049;-72
2021/10/15 16:54:50;;;;;;;4.38;3.47;;;14.60;1.00;;;;;;4863831;29;20132;-72
2021/10/15 16:57:16;;;;;;;5.82;3.50;;;14.50;1.00;;;;;;4863574;29;20033;-72
2021/10/15 16:59:42;;;;;;;5.85;3.50;;;14.30;1.00;;;;;;4863506;29;20050;-72
2021/10/15 17:02:08;;;;;;;7.43;3.03;;;14.10;1.00;;;;;;4863561;29;20045;-72
2021/10/15 17:04:43;;;;;;;6.20;4.20;;;14.00;1.00;;;;;;4866144;29;20051;-73
2021/10/15 17:07:09;;;;;;;20.42;13.88;;;14.00;1.00;;;;;;4881807;29;20128;-73
2021/10/15 17:09:35;;;;;;;6.90;4.85;;;14.00;1.00;;;;;;4882223;29;20255;-73
2021/10/15 17:12:01;;;;;;;9.73;6.22;;;14.00;1.00;;;;;;4881952;29;20040;-73
2021/10/15 17:14:27;;;;;;;9.57;5.82;;;13.90;1.00;;;;;;4881801;29;20378;-73
2021/10/15 17:16:53;;;;;;;6.13;4.68;;;13.70;1.00;;;;;;4882012;29;20044;-73
2021/10/15 17:19:19;;;;;;;7.43;4.78;;;13.60;1.00;;;;;;4881826;29;20040;-73
2021/10/15 17:21:45;;;;;;;5.57;4.25;;;13.50;1.00;;;;;;4881970;29;20481;-72
2021/10/15 17:24:12;;;;;;;6.93;4.93;;;13.40;1.00;;;;;;4882363;29;20498;-73
2021/10/15 17:26:38;;;;;;;8.13;6.47;;;13.40;1.00;;;;;;4881759;29;20109;-73
2021/10/15 17:29:04;;;;;;;13.45;7.28;;;13.40;1.00;;;;;;4882475;29;20041;-73
2021/10/15 17:31:30;;;;;;;11.23;5.25;;;13.50;1.00;;;;;;4881776;29;20124;-73
2021/10/15 17:33:55;;;;;;;10.18;5.75;;;13.70;1.00;;;;;;4882010;29;20053;-72
2021/10/15 17:36:21;;;;;;;10.82;5.18;;;13.90;1.00;;;;;;4881903;29;20132;-73
2021/10/15 17:38:48;;;;;;;6.93;4.93;;;14.40;1.00;;;;;;4882472;29;20377;-73
2021/10/15 17:41:14;;;;;;;8.57;4.25;;;14.50;1.00;;;;;;4881651;29;20056;-73
2021/10/15 17:43:40;;;;;;;6.72;4.13;;;14.60;1.00;;;;;;4881531;29;20071;-73
2021/10/15 17:46:07;;;;;;;5.95;4.07;;;14.60;1.00;;;;;;4881850;29;20076;-74